aviador You're here:

SCVM Decoded Metar

in
Report Time2017-07-26 06:00:00
UTC Time2017-07-26 06:34:25
Flight Rules vfr VFR
WindCalm
Visibility9999 m
Phenomena:N/A
Clouds:N/A
Expected CloudBase > 400 ft AGL from Temp-Dew spread
CeilingNone
Temp06°C
Dew Point05°C (93% RH)
AAT4.9°C
QNH1019 hPa
Raw Report
METAR SCVM 260600Z 00000KT CAVOK 06/05 Q1019=

Extra information for SCVM:More info

Social comments